• Join FlightAware (Why Join?)
  • Login
  • US Flag 
09:11AM EDT


 

Airport Tracker/Info


-or-


 

Live Flight TrackerFlight Track Log ✈ TAM3374 ✈ 08-May-2013 ✈ SBGL / GIG - SBCF / CNF

Flight Track Log - Related Links

Times and Time Zones

All times are in EDT time to prevent confusion due to time zone crossing. See the TAM3374 flight status page for this flight to view local times or setup timezone preferences in your user account.

Time Position Orientation Groundspeed Altitude Reporting Facility
EDT Latitude Longitude Course Direction KTS MPH feet Rate Location/Type
09:35PM -22.7820 -43.1930 60° Northeast 201 231 1,700  Level FlightAware
09:36PM -22.7710 -43.1790 50° Northeast 224 258 2,500 3,840 Climbing FlightAware
09:36PM -22.7370 -43.1590 28° Northeast 244 281 4,600 3,600 Climbing FlightAware
09:37PM -22.7200 -43.1420 43° Northeast 253 291 5,800 3,780 Climbing FlightAware
09:37PM -22.6950 -43.1170 43° Northeast 238 274 8,100 5,100 Climbing FlightAware
09:37PM -22.6630 -43.1320 337° Northwest 213 245 10,500 3,780 Climbing FlightAware
09:38PM -22.6240 -43.1510 336° Northwest 241 277 12,200 1,860 Climbing FlightAware
09:39PM -22.5710 -43.1750 337° Northwest 308 354 13,200 1,320 Climbing FlightAware
09:40PM -22.5160 -43.2020 336° Northwest 357 411 14,100 1,920 Climbing FlightAware
09:40PM -22.4390 -43.2320 340° North 382 440 16,000 2,520 Climbing FlightAware
09:41PM -22.3690 -43.2430 352° North 391 450 17,700 2,280 Climbing FlightAware
09:42PM -22.2950 -43.2550 351° North 404 465 19,100 1,680 Climbing FlightAware
09:42PM -22.2370 -43.2650 351° North 405 466 20,000 1,920 Climbing FlightAware
09:43PM -22.1530 -43.2790 351° North 423 487 21,700 2,460 Climbing FlightAware
09:44PM -22.0740 -43.2920 351° North 416 479 23,700 1,620 Climbing FlightAware
09:45PM -21.9800 -43.3070 352° North 414 476 24,600 1,980 Climbing FlightAware
09:46PM -21.8790 -43.3240 351° North 410 472 27,200 1,680 Climbing FlightAware
09:46PM -21.8150 -43.3350 351° North 410 472 27,200  Level FlightAware
09:47PM -21.7350 -43.3480 351° North 410 472 27,200  Level FlightAware
09:48PM -21.6720 -43.3590 351° North 410 472 27,200  Level FlightAware
09:48PM -21.6080 -43.3700 351° North 410 472 27,200 1,260 Level FlightAware
09:49PM -21.4680 -43.3910 352° North 408 470 29,000 1,260 Climbing FlightAware
09:50PM -21.3790 -43.4060 351° North 408 470 29,000  Level FlightAware
09:51PM -21.2970 -43.4190 352° North 409 471 29,000  Level FlightAware
09:51PM -21.2200 -43.4320 351° North 409 471 29,000  Level FlightAware
09:52PM -21.1480 -43.4440 351° North 409 471 29,000  Level FlightAware
09:53PM -21.0610 -43.4580 351° North 409 471 29,000  Level FlightAware
09:53PM -20.9850 -43.4710 351° North 408 470 29,000  Level FlightAware
09:54PM -20.9110 -43.4830 351° North 408 470 29,000  Level FlightAware
09:55PM -20.8280 -43.4960 352° North 407 468 29,000  Level FlightAware
09:55PM -20.7590 -43.5070 352° North 407 468 29,000  Level FlightAware
09:56PM -20.6670 -43.5220 351° North 407 468 29,000  Level FlightAware
09:57PM -20.5810 -43.5360 351° North 406 467 29,000  Level FlightAware
09:58PM -20.5080 -43.5480 351° North 406 467 29,000  Level FlightAware
09:58PM -20.4320 -43.5600 352° North 407 468 29,000  Level FlightAware
09:59PM -20.3630 -43.5720 351° North 407 468 29,000 -720 Level FlightAware
10:00PM -20.2830 -43.5840 352° North 412 474 28,000 -1,980 Descending FlightAware
10:00PM -20.1970 -43.5990 351° North 406 467 26,400 -2,220 Descending FlightAware
10:01PM -20.1170 -43.6110 352° North 400 460 24,900 -2,040 Descending FlightAware
10:02PM -20.0460 -43.6230 351° North 395 455 23,700 -2,040 Descending FlightAware
10:02PM -19.9650 -43.6360 351° North 391 450 22,200 -1,920 Descending FlightAware
10:03PM -19.9020 -43.6460 352° North 388 447 21,000 -1,800 Descending FlightAware
10:04PM -19.7940 -43.6640 351° North 371 427 19,200 -1,920 Descending FlightAware
10:05PM -19.7200 -43.6750 352° North 362 417 17,700 -2,160 Descending FlightAware
10:05PM -19.6520 -43.6860 351° North 360 414 16,200 -2,220 Descending FlightAware
10:06PM -19.6300 -43.6920 346° North 355 409 15,700 -1,800 Descending FlightAware
10:06PM -19.6110 -43.7060 325° Northwest 345 397 15,300 -2,640 Descending FlightAware
10:07PM -19.5620 -43.7560 316° Northwest 357 411 13,300 -2,700 Descending FlightAware
10:07PM -19.5150 -43.8050 315° West 350 403 11,700 -1,980 Descending FlightAware
10:08PM -19.4630 -43.8570 317° Northwest 324 373 10,500 -900 Descending FlightAware
10:09PM -19.4230 -43.8970 317° Northwest 275 316 10,500 -180 Level FlightAware
10:09PM -19.3850 -43.9350 317° Northwest 231 266 10,300 -540 Descending FlightAware
10:10PM -19.3670 -43.9550 314° West 222 255 9,900 -1,080 Descending FlightAware
10:10PM -19.3640 -43.9700 282° West 220 253 9,600 -1,020 Descending FlightAware
10:10PM -19.3710 -43.9850 244° Southwest 219 252 9,400 -960 Descending FlightAware
10:11PM -19.3900 -44.0080 229° Southwest 208 239 8,900 -1,200 Descending FlightAware
10:11PM -19.4060 -44.0290 231° Southwest 210 242 8,300 -1,440 Descending FlightAware
10:12PM -19.4240 -44.0520 230° Southwest 207 238 7,600 -1,380 Descending FlightAware
10:12PM -19.4360 -44.0600 212° Southwest 203 234 7,300 -1,680 Descending FlightAware
10:12PM -19.4450 -44.0640 203° Southwest 202 232 6,900 -2,280 Descending FlightAware
10:13PM -19.4690 -44.0780 209° Southwest 208 239 5,800 -1,980 Descending FlightAware
10:13PM -19.4920 -44.0880 202° Southwest 196 226 5,100 -1,140 Descending FlightAware
10:14PM -19.5140 -44.0780 157° South 164 189 4,800 -300 Descending FlightAware
10:14PM -19.5310 -44.0640 142° Southeast 150 173 4,800 -360 Level FlightAware
10:15PM -19.5440 -44.0520 139° Southeast 149 171 4,500 -780 Descending FlightAware
10:15PM -19.5590 -44.0380 139° Southeast 143 165 4,100 -840 Descending FlightAware
10:16PM -19.5740 -44.0240 139° Southeast 143 165 3,700 -780 Descending FlightAware
10:16PM -19.5870 -44.0120 139° Southeast 131 151 3,400 -660 Descending FlightAware
10:16PM -19.6000 -44.0000 139° Southeast 123 142 3,100 -600 Descending FlightAware
10:17PM -19.6120 -43.9890 139° Southeast 122 140 2,800 -720 Descending FlightAware
10:17PM -19.6260 -43.9760 139° Southeast 124 143 2,400 -840 Descending FlightAware